createdAt,value
2022-09-26T00:01:44.934Z,96873.20
2022-09-26T00:04:23.390Z,96871.29
2022-09-26T00:06:56.463Z,96863.24
2022-09-26T00:09:29.102Z,96857.89
2022-09-26T00:12:00.126Z,96854.89
2022-09-26T00:14:30.251Z,96853.52
2022-09-26T00:17:01.556Z,96849.90
2022-09-26T00:19:32.672Z,96850.13
2022-09-26T00:22:03.875Z,96852.35
2022-09-26T00:24:34.625Z,96849.83
2022-09-26T00:27:05.658Z,96855.20
2022-09-26T00:29:36.426Z,96855.35
2022-09-26T00:32:07.487Z,96854.89
2022-09-26T00:34:38.584Z,96855.41
2022-09-26T00:37:09.440Z,96855.91
2022-09-26T00:39:38.971Z,96858.88
2022-09-26T00:42:13.891Z,96858.65
2022-09-26T00:44:54.652Z,96852.08
2022-09-26T00:47:36.707Z,96848.79
2022-09-26T00:50:13.446Z,96846.94
2022-09-26T00:52:50.691Z,96842.56
2022-09-26T00:55:24.225Z,96844.32
2022-09-26T00:58:01.105Z,96842.89
2022-09-26T01:00:31.183Z,96840.71
2022-09-26T01:03:03.291Z,96836.48
2022-09-26T01:05:35.355Z,96834.84
2022-09-26T01:08:07.419Z,96830.77
2022-09-26T01:10:39.492Z,96823.66
2022-09-26T01:13:10.533Z,96825.99
2022-09-26T01:15:41.519Z,96819.45
2022-09-26T01:18:12.888Z,96821.48
2022-09-26T01:20:53.223Z,96818.38
2022-09-26T01:23:58.199Z,96819.16
2022-09-26T01:26:48.012Z,96814.92
2022-09-26T01:29:35.655Z,96812.98
2022-09-26T01:32:36.904Z,96812.46
2022-09-26T01:35:18.160Z,96806.98
2022-09-26T01:38:00.471Z,96804.83
2022-09-26T01:40:41.337Z,96801.96
2022-09-26T01:43:21.863Z,96797.69
2022-09-26T01:46:00.174Z,96795.90
2022-09-26T01:48:36.231Z,96792.42
2022-09-26T01:51:16.063Z,96793.36
2022-09-26T01:53:53.937Z,96791.36
2022-09-26T01:56:27.765Z,96787.41
2022-09-26T01:59:03.955Z,96780.77
2022-09-26T02:01:40.053Z,96780.00
2022-09-26T02:04:14.694Z,96776.53
2022-09-26T02:06:50.238Z,96778.80
2022-09-26T02:09:27.658Z,96782.09
2022-09-26T02:12:04.505Z,96782.02
2022-09-26T02:14:36.018Z,96782.20
2022-09-26T02:17:11.254Z,96780.27
2022-09-26T02:19:57.547Z,96780.34
2022-09-26T02:22:32.423Z,96775.23
2022-09-26T02:25:04.180Z,96775.40
2022-09-26T02:27:35.639Z,96770.20
2022-09-26T02:30:08.170Z,96766.48
2022-09-26T02:32:40.682Z,96759.39
2022-09-26T02:35:36.738Z,96756.48
2022-09-26T02:38:10.018Z,96752.20
2022-09-26T02:40:48.871Z,96750.14
2022-09-26T02:43:45.565Z,96745.94
2022-09-26T02:46:38.499Z,96741.34
2022-09-26T02:49:27.591Z,96738.27
2022-09-26T02:52:15.122Z,96738.13
2022-09-26T02:54:54.631Z,96737.58
2022-09-26T02:57:41.083Z,96739.70
2022-09-26T03:00:17.700Z,96738.98
2022-09-26T03:02:56.872Z,96738.16
2022-09-26T03:05:31.145Z,96740.48
2022-09-26T03:08:07.991Z,96740.43
2022-09-26T03:10:41.990Z,96735.52
2022-09-26T03:13:15.619Z,96732.98
2022-09-26T03:15:50.056Z,96732.17
2022-09-26T03:18:24.644Z,96723.92
2022-09-26T03:20:56.124Z,96721.60
2022-09-26T03:23:28.311Z,96726.00
2022-09-26T03:26:13.929Z,96722.88
2022-09-26T03:28:44.655Z,96726.27
2022-09-26T03:31:15.631Z,96719.95
2022-09-26T03:33:47.687Z,96718.36
2022-09-26T03:36:19.233Z,96713.70
2022-09-26T03:38:50.166Z,96710.70
2022-09-26T03:41:21.164Z,96709.58
2022-09-26T03:43:52.558Z,96711.73
2022-09-26T03:46:26.489Z,96710.45
2022-09-26T03:48:57.304Z,96714.34
2022-09-26T03:51:28.454Z,96708.52
2022-09-26T03:53:59.491Z,96707.01
2022-09-26T03:56:28.784Z,96701.84
2022-09-26T03:58:59.919Z,96700.20
2022-09-26T04:01:33.709Z,96697.80
2022-09-26T04:04:05.296Z,96694.52
2022-09-26T04:06:36.361Z,96690.23
2022-09-26T04:09:07.401Z,96688.31
2022-09-26T04:11:38.459Z,96687.02
2022-09-26T04:14:10.024Z,96680.55
2022-09-26T04:16:40.951Z,96680.63
2022-09-26T04:19:13.135Z,96676.10
2022-09-26T04:21:45.182Z,96676.59
2022-09-26T04:24:17.761Z,96678.84
2022-09-26T04:26:48.562Z,96674.88
2022-09-26T04:29:19.915Z,96677.28
2022-09-26T04:31:51.355Z,96679.68
2022-09-26T04:34:27.194Z,96675.52
2022-09-26T04:37:00.629Z,96678.71
2022-09-26T04:39:31.593Z,96679.66
2022-09-26T04:42:02.543Z,96685.64
2022-09-26T04:44:32.916Z,96682.52
2022-09-26T04:47:03.913Z,96685.29
2022-09-26T04:49:35.006Z,96682.23
2022-09-26T04:52:06.545Z,96679.98
2022-09-26T04:54:38.524Z,96679.30
2022-09-26T04:57:09.500Z,96677.65
2022-09-26T04:59:40.369Z,96675.94
2022-09-26T05:02:11.293Z,96674.44
2022-09-26T05:04:42.406Z,96673.35
2022-09-26T05:07:11.916Z,96674.37
2022-09-26T05:09:43.574Z,96672.98
2022-09-26T05:12:15.935Z,96673.05
2022-09-26T05:14:46.755Z,96673.61
2022-09-26T05:17:17.734Z,96669.66
2022-09-26T05:19:49.039Z,96665.92
2022-09-26T05:22:19.939Z,96659.99
2022-09-26T05:25:08.940Z,96660.41
2022-09-26T05:27:39.991Z,96663.61
2022-09-26T05:30:13.406Z,96665.30
2022-09-26T05:32:48.629Z,96663.00
2022-09-26T05:35:19.743Z,96663.07
2022-09-26T05:37:50.836Z,96662.08
2022-09-26T05:40:39.339Z,96660.42
2022-09-26T05:43:11.605Z,96666.90
2022-09-26T05:45:43.192Z,96664.63
2022-09-26T05:48:15.648Z,96662.70
2022-09-26T05:50:47.230Z,96662.42
2022-09-26T05:53:18.351Z,96661.92
2022-09-26T05:55:53.062Z,96659.61
2022-09-26T05:58:24.715Z,96658.84
2022-09-26T06:00:55.986Z,96660.80
2022-09-26T06:03:27.885Z,96660.06
2022-09-26T06:06:01.967Z,96664.02
2022-09-26T06:08:33.319Z,96665.16
2022-09-26T06:11:06.532Z,96668.61
2022-09-26T06:13:38.408Z,96667.21
2022-09-26T06:16:13.306Z,96668.84
2022-09-26T06:18:44.543Z,96666.00
2022-09-26T06:21:17.482Z,96666.92
2022-09-26T06:23:48.689Z,96668.19
2022-09-26T06:26:23.622Z,96667.01
2022-09-26T06:29:00.330Z,96667.95
2022-09-26T06:31:31.896Z,96665.74
2022-09-26T06:34:05.334Z,96669.11
2022-09-26T06:36:36.787Z,96669.14
2022-09-26T06:39:08.023Z,96668.96
2022-09-26T06:41:39.178Z,96667.02
2022-09-26T06:44:10.884Z,96670.21
2022-09-26T06:46:42.164Z,96671.08
2022-09-26T06:49:13.288Z,96667.94
2022-09-26T06:51:44.244Z,96669.35
2022-09-26T06:54:15.204Z,96668.84
2022-09-26T06:56:46.384Z,96668.08
2022-09-26T06:59:18.114Z,96671.15
2022-09-26T07:01:49.331Z,96671.89
2022-09-26T07:04:20.527Z,96669.61
2022-09-26T07:06:51.490Z,96672.25
2022-09-26T07:09:22.559Z,96670.73
2022-09-26T07:12:14.201Z,96668.42
2022-09-26T07:14:48.879Z,96667.86
2022-09-26T07:17:23.942Z,96669.96
2022-09-26T07:19:55.113Z,96675.00
2022-09-26T07:22:26.704Z,96672.50
2022-09-26T07:24:57.809Z,96672.16
2022-09-26T07:27:27.114Z,96674.11
2022-09-26T07:29:56.654Z,96668.79
2022-09-26T07:32:27.688Z,96673.17
2022-09-26T07:35:03.322Z,96670.54
2022-09-26T07:37:34.145Z,96668.82
2022-09-26T07:40:05.956Z,96672.02
2022-09-26T07:42:37.939Z,96668.65
2022-09-26T07:45:24.748Z,96669.08
2022-09-26T07:48:16.996Z,96670.02
2022-09-26T07:50:48.583Z,96672.34
2022-09-26T07:53:19.410Z,96668.50
2022-09-26T07:56:04.244Z,96667.54
2022-09-26T07:58:36.211Z,96667.27
2022-09-26T08:01:11.543Z,96668.86
2022-09-26T08:03:44.251Z,96670.58
2022-09-26T08:06:17.899Z,96664.70
2022-09-26T08:08:50.389Z,96668.59
2022-09-26T08:11:23.023Z,96669.95
2022-09-26T08:13:54.252Z,96670.46
2022-09-26T08:16:25.954Z,96674.27
2022-09-26T08:18:57.050Z,96673.67
2022-09-26T08:21:27.917Z,96678.39
2022-09-26T08:23:57.141Z,96678.94
2022-09-26T08:26:28.175Z,96674.39
2022-09-26T08:29:00.038Z,96673.16
2022-09-26T08:31:32.019Z,96673.52
2022-09-26T08:34:03.064Z,96673.46
2022-09-26T08:36:33.235Z,96673.46
2022-09-26T08:39:04.998Z,96677.63
2022-09-26T08:41:51.120Z,96678.25
2022-09-26T08:44:42.157Z,96674.92
2022-09-26T08:47:28.225Z,96673.98
2022-09-26T08:50:18.207Z,96670.67
2022-09-26T08:52:53.322Z,96671.57
2022-09-26T08:55:28.142Z,96675.38
2022-09-26T08:58:02.638Z,96672.66
2022-09-26T09:00:38.162Z,96678.67
2022-09-26T09:03:18.462Z,96681.52
2022-09-26T09:05:52.199Z,96685.60
2022-09-26T09:08:29.763Z,96684.33
2022-09-26T09:11:09.425Z,96690.30
2022-09-26T09:13:53.815Z,96687.70
2022-09-26T09:16:39.058Z,96687.25
2022-09-26T09:19:24.223Z,96680.37
2022-09-26T09:22:13.083Z,96687.42
2022-09-26T09:24:58.275Z,96686.58
2022-09-26T09:28:05.441Z,96689.02
2022-09-26T09:30:42.065Z,96686.64
2022-09-26T09:33:18.712Z,96679.32
2022-09-26T09:35:51.253Z,96674.30
2022-09-26T09:38:24.568Z,96670.70
2022-09-26T09:41:02.927Z,96674.55
2022-09-26T09:43:38.803Z,96677.27
2022-09-26T09:46:17.942Z,96683.42
2022-09-26T09:48:52.538Z,96683.79
2022-09-26T09:51:39.781Z,96681.76
2022-09-26T09:54:25.814Z,96678.35
2022-09-26T09:57:16.452Z,96678.03
2022-09-26T10:00:02.710Z,96676.01
2022-09-26T10:02:44.115Z,96674.10
2022-09-26T10:05:36.841Z,96672.90
2022-09-26T10:08:14.300Z,96671.91
2022-09-26T10:10:54.883Z,96672.06
2022-09-26T10:13:32.721Z,96663.60
2022-09-26T10:16:06.362Z,96665.63
2022-09-26T10:18:58.273Z,96660.35
2022-09-26T10:21:35.750Z,96659.11
2022-09-26T10:24:07.596Z,96664.70
2022-09-26T10:26:39.672Z,96669.13
2022-09-26T10:29:25.404Z,96669.15
2022-09-26T10:32:00.399Z,96670.18
2022-09-26T10:34:34.527Z,96672.17
2022-09-26T10:37:24.351Z,96673.77
2022-09-26T10:40:17.407Z,96671.02
2022-09-26T10:42:48.744Z,96675.75
2022-09-26T10:45:27.522Z,96676.15
2022-09-26T10:47:59.538Z,96673.41
2022-09-26T10:50:31.232Z,96673.96
2022-09-26T10:53:09.800Z,96665.88
2022-09-26T10:55:43.793Z,96663.48
2022-09-26T10:58:22.493Z,96658.46
2022-09-26T11:00:54.864Z,96662.72
2022-09-26T11:03:34.444Z,96660.39
2022-09-26T11:06:05.835Z,96661.64
2022-09-26T11:08:39.236Z,96657.46
2022-09-26T11:11:17.613Z,96655.27
2022-09-26T11:14:04.121Z,96648.35
2022-09-26T11:16:53.951Z,96651.77
2022-09-26T11:19:34.309Z,96648.50
2022-09-26T11:22:15.454Z,96646.72
2022-09-26T11:24:52.857Z,96642.00
2022-09-26T11:27:32.842Z,96643.80
2022-09-26T11:30:09.571Z,96646.77
2022-09-26T11:32:44.117Z,96650.45
2022-09-26T11:35:21.197Z,96650.88
2022-09-26T11:38:05.823Z,96652.60
2022-09-26T11:40:52.332Z,96652.33
2022-09-26T11:43:36.592Z,96654.88
2022-09-26T11:46:35.494Z,96650.50
2022-09-26T11:49:33.963Z,96645.73
2022-09-26T11:52:21.207Z,96640.61
2022-09-26T11:55:04.554Z,96637.69
2022-09-26T11:57:45.489Z,96634.86
2022-09-26T12:00:27.406Z,96629.73
2022-09-26T12:03:33.657Z,96626.70
2022-09-26T12:06:19.253Z,96626.38
2022-09-26T12:09:05.472Z,96630.40
2022-09-26T12:11:46.686Z,96638.45
2022-09-26T12:14:39.397Z,96635.86
2022-09-26T12:17:21.494Z,96635.52
2022-09-26T12:20:02.264Z,96635.30
2022-09-26T12:22:40.781Z,96635.08
2022-09-26T12:25:29.872Z,96628.82
2022-09-26T12:28:12.563Z,96623.45
2022-09-26T12:30:52.425Z,96622.48
2022-09-26T12:33:43.254Z,96621.08
2022-09-26T12:36:25.639Z,96623.74
2022-09-26T12:39:10.894Z,96622.20
2022-09-26T12:42:01.773Z,96623.50
2022-09-26T12:44:51.066Z,96625.86
2022-09-26T12:47:29.886Z,96625.58
2022-09-26T12:50:31.070Z,96626.30
2022-09-26T12:53:19.473Z,96624.72
2022-09-26T12:55:54.533Z,96625.14
2022-09-26T12:58:38.582Z,96620.17
2022-09-26T13:01:28.159Z,96618.21
2022-09-26T13:04:27.120Z,96617.23
2022-09-26T13:07:20.926Z,96617.20
2022-09-26T13:10:16.003Z,96612.02
2022-09-26T13:13:04.368Z,96607.09
2022-09-26T13:15:44.031Z,96599.66
2022-09-26T13:18:22.982Z,96596.02
2022-09-26T13:21:03.500Z,96592.86
2022-09-26T13:23:41.221Z,96589.54
2022-09-26T13:26:17.894Z,96591.32
2022-09-26T13:29:15.794Z,96586.10
2022-09-26T13:31:55.491Z,96584.02
2022-09-26T13:34:31.331Z,96581.70
2022-09-26T13:37:04.939Z,96570.88
2022-09-26T13:39:42.096Z,96570.30
2022-09-26T13:42:20.257Z,96570.11
2022-09-26T13:45:04.107Z,96570.03
2022-09-26T13:47:46.465Z,96565.05
2022-09-26T13:50:25.160Z,96562.00
2022-09-26T13:53:09.072Z,96562.45
2022-09-26T13:55:42.839Z,96555.55
2022-09-26T13:58:25.940Z,96554.96
2022-09-26T14:00:56.169Z,96547.08
2022-09-26T14:03:42.416Z,96551.15
2022-09-26T14:06:35.957Z,96547.55
2022-09-26T14:09:40.827Z,96551.08
2022-09-26T14:12:35.454Z,96554.41
2022-09-26T14:15:25.215Z,96548.31
2022-09-26T14:18:23.294Z,96545.71
2022-09-26T14:21:07.837Z,96545.75
2022-09-26T14:23:49.683Z,96543.05
2022-09-26T14:26:27.325Z,96544.67
2022-09-26T14:29:18.962Z,96535.25
2022-09-26T14:32:04.539Z,96529.05
2022-09-26T14:34:42.674Z,96522.95
2022-09-26T14:37:29.334Z,96523.88
2022-09-26T14:40:16.173Z,96517.88
2022-09-26T14:42:54.866Z,96514.44
2022-09-26T14:45:28.450Z,96511.84
2022-09-26T14:48:14.470Z,96508.49
2022-09-26T14:50:53.241Z,96502.98
2022-09-26T14:53:30.223Z,96505.85
2022-09-26T14:56:02.144Z,96504.75
2022-09-26T14:58:47.488Z,96499.77
2022-09-26T15:01:24.973Z,96500.58
2022-09-26T15:04:03.067Z,96506.38
2022-09-26T15:06:40.536Z,96499.60
2022-09-26T15:09:19.542Z,96499.89
2022-09-26T15:11:55.308Z,96493.38
2022-09-26T15:14:32.215Z,96491.65
2022-09-26T15:17:04.026Z,96490.76
2022-09-26T15:19:37.917Z,96483.09
2022-09-26T15:22:14.843Z,96477.84
2022-09-26T15:24:45.773Z,96480.83
2022-09-26T15:27:27.279Z,96480.80
2022-09-26T15:30:05.446Z,96476.35
2022-09-26T15:32:36.979Z,96476.94
2022-09-26T15:35:12.151Z,96475.04
2022-09-26T15:37:43.461Z,96472.65
2022-09-26T15:40:18.585Z,96473.27
2022-09-26T15:43:02.998Z,96476.20
2022-09-26T15:45:38.374Z,96476.60
2022-09-26T15:48:27.409Z,96479.90
2022-09-26T15:51:01.853Z,96477.89
2022-09-26T15:53:39.746Z,96476.41
2022-09-26T15:56:14.348Z,96471.23
2022-09-26T15:58:50.751Z,96467.67
2022-09-26T16:01:23.785Z,96468.22
2022-09-26T16:04:00.057Z,96461.63
2022-09-26T16:06:34.965Z,96461.55
2022-09-26T16:09:18.016Z,96458.58
2022-09-26T16:11:51.778Z,96456.63
2022-09-26T16:14:34.063Z,96455.79
2022-09-26T16:17:14.927Z,96455.14
2022-09-26T16:19:50.700Z,96452.18
2022-09-26T16:22:38.955Z,96452.41
2022-09-26T16:25:24.126Z,96453.23
2022-09-26T16:28:00.768Z,96452.20
2022-09-26T16:30:45.264Z,96450.52
2022-09-26T16:33:36.591Z,96447.46
2022-09-26T16:36:23.636Z,96452.46
2022-09-26T16:38:58.064Z,96453.11
2022-09-26T16:41:59.943Z,96453.31
2022-09-26T16:44:34.951Z,96453.02
2022-09-26T16:47:29.254Z,96457.70
2022-09-26T16:50:19.923Z,96459.51
2022-09-26T16:52:51.508Z,96461.74
2022-09-26T16:55:24.326Z,96462.20
2022-09-26T16:57:58.197Z,96456.04
2022-09-26T17:00:52.119Z,96454.09
2022-09-26T17:03:31.671Z,96460.42
2022-09-26T17:06:03.307Z,96459.71
2022-09-26T17:08:34.125Z,96457.80
2022-09-26T17:11:14.640Z,96454.02
2022-09-26T17:13:45.974Z,96452.46
2022-09-26T17:16:16.965Z,96443.23
2022-09-26T17:18:47.929Z,96445.73
2022-09-26T17:21:18.830Z,96446.41
2022-09-26T17:23:49.067Z,96448.68
2022-09-26T17:26:23.938Z,96451.39
2022-09-26T17:28:58.089Z,96453.39
2022-09-26T17:31:30.981Z,96455.05
2022-09-26T17:34:03.533Z,96455.47
2022-09-26T17:36:34.619Z,96456.27
2022-09-26T17:39:07.968Z,96456.72
2022-09-26T17:41:39.114Z,96456.60
2022-09-26T17:44:08.404Z,96453.45
2022-09-26T17:46:42.583Z,96454.52
2022-09-26T17:49:19.002Z,96452.13
2022-09-26T17:51:50.283Z,96452.88
2022-09-26T17:54:23.481Z,96448.61
2022-09-26T17:56:54.613Z,96451.40
2022-09-26T17:59:28.722Z,96451.79
2022-09-26T18:02:05.804Z,96457.12
2022-09-26T18:04:35.355Z,96453.06
2022-09-26T18:07:06.736Z,96454.38
2022-09-26T18:09:39.234Z,96454.34
2022-09-26T18:12:15.808Z,96454.03
2022-09-26T18:14:47.479Z,96455.11
2022-09-26T18:17:19.242Z,96454.53
2022-09-26T18:19:51.206Z,96450.54
2022-09-26T18:22:32.635Z,96448.61
2022-09-26T18:25:07.413Z,96445.53
2022-09-26T18:27:40.549Z,96444.27
2022-09-26T18:30:15.915Z,96443.50
2022-09-26T18:32:51.171Z,96443.20
2022-09-26T18:35:25.058Z,96439.55
2022-09-26T18:37:57.174Z,96440.76
2022-09-26T18:40:29.665Z,96441.45
2022-09-26T18:43:01.433Z,96442.31
2022-09-26T18:45:35.941Z,96438.22
2022-09-26T18:48:09.099Z,96441.92
2022-09-26T18:50:41.040Z,96435.70
2022-09-26T18:53:16.573Z,96433.27
2022-09-26T18:56:05.475Z,96435.55
2022-09-26T18:58:37.990Z,96442.75
2022-09-26T19:01:13.922Z,96440.90
2022-09-26T19:03:49.402Z,96443.34
2022-09-26T19:06:23.180Z,96443.02
2022-09-26T19:08:58.525Z,96440.73
2022-09-26T19:11:32.600Z,96437.85
2022-09-26T19:14:13.895Z,96435.80
2022-09-26T19:16:46.366Z,96438.38
2022-09-26T19:19:18.370Z,96435.47
2022-09-26T19:21:52.860Z,96436.47
2022-09-26T19:24:31.599Z,96434.80
2022-09-26T19:27:06.606Z,96431.01
2022-09-26T19:29:41.320Z,96429.19
2022-09-26T19:32:20.659Z,96427.44
2022-09-26T19:34:56.821Z,96427.90
2022-09-26T19:37:28.092Z,96425.11
2022-09-26T19:39:59.792Z,96423.61
2022-09-26T19:42:30.910Z,96419.30
2022-09-26T19:45:03.292Z,96414.46
2022-09-26T19:47:35.456Z,96417.52
2022-09-26T19:50:07.471Z,96415.61
2022-09-26T19:52:38.373Z,96417.35
2022-09-26T19:55:12.974Z,96413.24
2022-09-26T19:57:43.767Z,96411.53
2022-09-26T20:00:18.865Z,96406.87
2022-09-26T20:02:51.647Z,96410.61
2022-09-26T20:05:25.616Z,96406.30
2022-09-26T20:07:56.367Z,96405.55
2022-09-26T20:10:27.507Z,96400.77
2022-09-26T20:12:58.521Z,96400.00
2022-09-26T20:15:28.068Z,96399.15
2022-09-26T20:18:00.456Z,96395.23
2022-09-26T20:20:32.306Z,96393.70
2022-09-26T20:23:04.680Z,96389.52
2022-09-26T20:25:37.279Z,96385.45
2022-09-26T20:28:08.149Z,96385.20
2022-09-26T20:30:55.416Z,96382.80
2022-09-26T20:33:27.577Z,96381.07
2022-09-26T20:36:03.851Z,96378.08
2022-09-26T20:38:41.749Z,96379.34
2022-09-26T20:41:19.652Z,96373.91
2022-09-26T20:43:56.921Z,96371.47
2022-09-26T20:46:30.314Z,96363.66
2022-09-26T20:49:03.589Z,96365.42
2022-09-26T20:51:35.196Z,96360.07
2022-09-26T20:54:08.028Z,96357.93
2022-09-26T20:56:41.313Z,96353.64
2022-09-26T20:59:12.453Z,96349.85
2022-09-26T21:01:43.627Z,96347.35
2022-09-26T21:04:15.206Z,96345.69
2022-09-26T21:06:48.539Z,96342.64
2022-09-26T21:09:21.179Z,96336.60
2022-09-26T21:11:52.574Z,96331.09
2022-09-26T21:14:23.775Z,96333.10
2022-09-26T21:16:55.539Z,96335.06
2022-09-26T21:19:28.708Z,96341.40
2022-09-26T21:22:02.451Z,96338.33
2022-09-26T21:24:38.489Z,96341.94
2022-09-26T21:27:12.623Z,96344.29
2022-09-26T21:29:44.549Z,96343.62
2022-09-26T21:32:18.974Z,96346.73
2022-09-26T21:34:56.632Z,96347.16
2022-09-26T21:37:27.680Z,96356.88
2022-09-26T21:39:57.438Z,96359.37
2022-09-26T21:42:28.735Z,96352.99
2022-09-26T21:45:03.902Z,96345.95
2022-09-26T21:47:36.857Z,96345.52
2022-09-26T21:50:09.712Z,96352.27
2022-09-26T21:52:45.974Z,96359.09
2022-09-26T21:55:22.904Z,96357.41
2022-09-26T21:57:55.996Z,96348.02
2022-09-26T22:00:27.043Z,96344.42
2022-09-26T22:03:00.780Z,96337.95
2022-09-26T22:05:31.494Z,96341.33
2022-09-26T22:08:02.989Z,96336.50
2022-09-26T22:10:34.413Z,96329.50
2022-09-26T22:13:05.407Z,96329.48
2022-09-26T22:15:34.896Z,96320.73
2022-09-26T22:18:04.574Z,96318.05
2022-09-26T22:20:36.042Z,96303.39
2022-09-26T22:23:07.169Z,96295.82
2022-09-26T22:25:42.669Z,96288.86
2022-09-26T22:28:14.011Z,96286.48
2022-09-26T22:30:45.030Z,96282.98
2022-09-26T22:33:16.146Z,96279.96
2022-09-26T22:35:49.455Z,96277.21
2022-09-26T22:38:20.691Z,96272.27
2022-09-26T22:40:59.817Z,96268.27
2022-09-26T22:43:31.860Z,96266.70
2022-09-26T22:46:05.892Z,96263.85
2022-09-26T22:48:37.972Z,96266.89
2022-09-26T22:51:09.879Z,96270.23
2022-09-26T22:53:42.028Z,96269.14
2022-09-26T22:56:15.168Z,96262.91
2022-09-26T22:58:48.292Z,96254.30
2022-09-26T23:01:22.421Z,96248.45
2022-09-26T23:03:53.939Z,96242.52
2022-09-26T23:06:25.443Z,96240.25
2022-09-26T23:08:57.444Z,96236.06
2022-09-26T23:11:28.907Z,96236.04
2022-09-26T23:13:59.984Z,96233.54
2022-09-26T23:16:29.285Z,96229.91
2022-09-26T23:19:00.394Z,96230.52
2022-09-26T23:21:29.797Z,96233.55
2022-09-26T23:24:01.300Z,96234.99
2022-09-26T23:26:33.631Z,96232.49
2022-09-26T23:29:05.520Z,96234.55
2022-09-26T23:31:37.037Z,96234.45
2022-09-26T23:34:08.332Z,96228.79
2022-09-26T23:36:39.429Z,96218.05
2022-09-26T23:39:11.195Z,96217.48
2022-09-26T23:41:42.330Z,96216.54
2022-09-26T23:44:11.713Z,96207.84
2022-09-26T23:46:42.634Z,96206.31
2022-09-26T23:49:13.771Z,96202.06
2022-09-26T23:51:44.723Z,96203.48
2022-09-26T23:54:14.459Z,96206.51
2022-09-26T23:56:45.274Z,96205.14
2022-09-26T23:59:14.977Z,96202.84
